Time;durP1;ratioP1;P1;durP2;ratioP2;P2;SDS_P1;SDS_P2;PMS_P1;PMS_P2;Temp;Humidity;BMP_temperature;BMP_pressure;BME280_temperature;BME280_humidity;BME280_pressure;Samples;Min_cycle;Max_cycle;Signal;HPM_P1;HPM_P2
2022/04/01 00:01:44;;;;;;;;;0.25;0.25;;;;;6.51;47.40;99747.91;5020246;28;45546;-67
2022/04/01 00:04:10;;;;;;;;;1.25;1.00;;;;;6.52;47.95;99760.03;5023425;28;45333;-65
2022/04/01 00:06:35;;;;;;;;;0.00;0.00;;;;;6.53;47.83;99753.91;5033621;28;45379;-64
2022/04/01 00:09:01;;;;;;;;;2.00;2.00;;;;;6.52;47.75;99740.00;5031988;28;46132;-62
2022/04/01 00:11:26;;;;;;;;;1.00;1.00;;;;;6.49;47.64;99734.03;5021820;28;45407;-66
2022/04/01 00:13:52;;;;;;;;;1.00;1.00;;;;;6.49;47.72;99744.47;5025202;28;45411;-65
2022/04/01 00:16:17;;;;;;;;;1.75;1.00;;;;;6.47;47.91;99746.28;5034250;28;45462;-67
2022/04/01 00:18:42;;;;;;;;;2.75;1.00;;;;;6.47;48.12;99735.81;5021339;28;45392;-66
2022/04/01 00:21:07;;;;;;;;;3.00;1.00;;;;;6.53;48.06;99739.09;5035558;28;46481;-68
2022/04/01 00:23:33;;;;;;;;;0.75;0.75;;;;;6.57;47.99;99735.47;5036721;28;45288;-68
2022/04/01 00:25:58;;;;;;;;;1.00;0.00;;;;;6.62;47.72;99733.56;5025763;28;45638;-68
2022/04/01 00:28:24;;;;;;;;;2.50;1.50;;;;;6.70;47.59;99741.16;5023801;28;45498;-65
2022/04/01 00:30:49;;;;;;;;;2.25;1.75;;;;;6.69;48.14;99741.19;5032017;28;45522;-65
2022/04/01 00:33:16;;;;;;;;;0.00;0.00;;;;;6.53;47.67;99725.16;5030232;28;45675;-66
2022/04/01 00:35:42;;;;;;;;;0.00;0.00;;;;;6.53;47.87;99733.00;5028609;28;45408;-66
2022/04/01 00:38:08;;;;;;;;;0.75;0.75;;;;;6.47;48.12;99726.22;5021944;28;46014;-65
2022/04/01 00:40:35;;;;;;;;;2.50;1.00;;;;;6.45;48.28;99735.00;5019933;28;45558;-66
2022/04/01 00:43:01;;;;;;;;;2.00;1.00;;;;;6.40;48.32;99729.97;5032138;28;45582;-64
2022/04/01 00:45:26;;;;;;;;;3.00;1.75;;;;;6.35;48.44;99722.25;5025444;28;45575;-64
2022/04/01 00:47:51;;;;;;;;;0.25;0.25;;;;;6.38;48.58;99727.38;5018074;28;46071;-67
2022/04/01 00:50:17;;;;;;;;;1.00;1.00;;;;;6.40;48.41;99719.50;5023567;28;45439;-64
2022/04/01 00:52:44;;;;;;;;;2.50;1.00;;;;;6.33;48.79;99716.22;5033450;28;45491;-66
2022/04/01 00:55:09;;;;;;;;;1.00;1.00;;;;;6.29;48.76;99711.19;5017770;28;45602;-62
2022/04/01 00:57:36;;;;;;;;;0.75;0.75;;;;;6.20;48.82;99694.03;5024757;28;45434;-65
2022/04/01 01:00:04;;;;;;;;;0.00;0.00;;;;;6.26;49.01;99708.63;5034538;28;45484;-65
2022/04/01 01:02:30;;;;;;;;;1.50;1.50;;;;;6.34;48.87;99704.03;5037360;28;45508;-67
2022/04/01 01:04:56;;;;;;;;;0.00;0.00;;;;;6.29;49.05;99698.97;5023478;28;45445;-65
2022/04/01 01:07:21;;;;;;;;;0.00;0.00;;;;;6.33;48.85;99697.94;5026743;28;46011;-65
2022/04/01 01:09:49;;;;;;;;;2.75;1.00;;;;;6.33;48.84;99681.44;5034910;28;45438;-65
2022/04/01 01:12:17;;;;;;;;;0.75;0.75;;;;;6.36;48.69;99681.31;5017531;28;45526;-64
2022/04/01 01:14:44;;;;;;;;;0.75;0.75;;;;;6.22;49.40;99681.78;5021626;28;45574;-65
2022/04/01 01:17:12;;;;;;;;;0.00;0.00;;;;;6.20;49.18;99675.75;5017108;28;45493;-66
2022/04/01 01:19:37;;;;;;;;;1.00;1.00;;;;;6.18;49.61;99665.38;5017378;28;45634;-66
2022/04/01 01:22:04;;;;;;;;;0.00;0.00;;;;;6.21;49.71;99685.31;5017554;28;45400;-63
2022/04/01 01:24:35;;;;;;;;;2.00;0.25;;;;;6.21;49.95;99669.63;5016224;28;45483;-64
2022/04/01 01:27:02;;;;;;;;;2.50;1.00;;;;;6.19;49.96;99655.78;5032989;28;45538;-65
2022/04/01 01:29:30;;;;;;;;;0.25;0.25;;;;;6.26;50.27;99672.09;5028776;28;45603;-65
2022/04/01 01:31:59;;;;;;;;;0.00;0.00;;;;;6.25;50.54;99659.94;5032621;28;45497;-65
2022/04/01 01:34:26;;;;;;;;;1.00;1.00;;;;;6.26;50.80;99664.25;5035685;28;45522;-65
2022/04/01 01:36:52;;;;;;;;;0.25;0.25;;;;;6.25;50.82;99676.44;5029990;28;46506;-65
2022/04/01 01:39:19;;;;;;;;;2.50;2.50;;;;;6.06;51.22;99677.94;5036921;28;45363;-63
2022/04/01 01:41:46;;;;;;;;;2.00;0.75;;;;;6.09;51.30;99657.81;5024130;28;45544;-67
2022/04/01 01:44:12;;;;;;;;;3.00;1.00;;;;;6.08;51.39;99653.50;5029130;28;45570;-65
2022/04/01 01:46:38;;;;;;;;;0.00;0.00;;;;;6.06;51.87;99644.88;5032718;28;46129;-66
2022/04/01 01:49:04;;;;;;;;;0.00;0.00;;;;;6.05;52.06;99657.97;5017544;28;45672;-62
2022/04/01 01:56:59;;;;;;;;;0.50;0.50;;;;;6.06;53.37;99629.22;5016827;28;45884;-65
2022/04/01 01:59:25;;;;;;;;;0.00;0.00;;;;;5.93;53.68;99613.09;5019741;28;45521;-64
2022/04/01 02:01:51;;;;;;;;;0.00;0.00;;;;;5.97;53.80;99622.53;5017467;28;45629;-64
2022/04/01 02:04:16;;;;;;;;;1.00;1.00;;;;;5.85;53.96;99615.06;5028462;28;50614;-64
2022/04/01 02:06:41;;;;;;;;;0.75;0.75;;;;;5.81;54.16;99626.50;5025944;28;46379;-64
2022/04/01 02:09:07;;;;;;;;;0.50;0.50;;;;;5.74;53.93;99618.00;5016853;28;45475;-62
2022/04/01 02:11:32;;;;;;;;;0.00;0.00;;;;;5.70;54.40;99626.84;5027980;28;45529;-65
2022/04/01 02:13:58;;;;;;;;;1.00;1.00;;;;;5.72;54.67;99621.56;5035226;28;45544;-64
2022/04/01 02:16:24;;;;;;;;;1.00;0.50;;;;;5.67;54.53;99624.34;5028763;28;45569;-65
2022/04/01 02:18:50;;;;;;;;;2.00;0.75;;;;;5.58;55.02;99618.53;5031656;28;45530;-68
2022/04/01 02:21:17;;;;;;;;;1.00;1.00;;;;;5.61;55.49;99611.47;5028122;28;45681;-66
2022/04/01 02:23:47;;;;;;;;;1.25;1.25;;;;;5.51;55.75;99623.94;5016593;28;45463;-66
2022/04/01 02:26:13;;;;;;;;;2.50;1.00;;;;;5.44;56.44;99613.75;5023596;28;46332;-64
2022/04/01 02:28:40;;;;;;;;;1.00;1.00;;;;;5.36;57.54;99608.75;5016461;28;45411;-62
2022/04/01 02:31:07;;;;;;;;;0.50;0.50;;;;;5.29;57.98;99597.66;5020271;28;45450;-65
2022/04/01 02:33:35;;;;;;;;;1.25;0.50;;;;;5.15;58.65;99593.75;5016140;28;45518;-67
2022/04/01 02:36:02;;;;;;;;;3.75;1.00;;;;;5.26;57.61;99596.88;5018217;28;46203;-64
2022/04/01 02:38:29;;;;;;;;;1.00;0.75;;;;;5.31;58.71;99618.47;5023275;28;45459;-66
2022/04/01 02:40:56;;;;;;;;;1.00;0.25;;;;;5.24;58.40;99601.31;5032704;28;45521;-64
2022/04/01 02:43:22;;;;;;;;;0.75;0.50;;;;;5.13;59.27;99609.44;5016259;28;45448;-65
2022/04/01 02:45:48;;;;;;;;;0.75;0.75;;;;;5.18;58.65;99578.88;5029625;28;46102;-64
2022/04/01 02:48:18;;;;;;;;;1.25;1.00;;;;;5.25;59.07;99601.25;5028976;28;45594;-66
2022/04/01 02:50:46;;;;;;;;;3.00;1.00;;;;;5.19;60.29;99606.66;5019222;28;45316;-65
2022/04/01 02:53:12;;;;;;;;;0.50;0.50;;;;;5.05;61.13;99585.31;5026600;28;45550;-62
2022/04/01 02:55:38;;;;;;;;;1.50;1.00;;;;;5.00;61.77;99585.50;5028220;28;45498;-63
2022/04/01 02:58:07;;;;;;;;;1.00;1.00;;;;;4.90;61.74;99576.22;5028040;28;45533;-63
2022/04/01 03:00:34;;;;;;;;;1.00;1.00;;;;;4.94;61.35;99585.63;5019826;28;45561;-64
2022/04/01 03:03:00;;;;;;;;;3.00;2.00;;;;;4.98;61.74;99582.06;5014260;28;45657;-64
2022/04/01 03:05:26;;;;;;;;;2.00;1.00;;;;;4.94;61.67;99597.81;5027084;28;45382;-66
2022/04/01 03:07:52;;;;;;;;;1.00;1.00;;;;;4.83;62.06;99577.28;5031106;28;45458;-64
2022/04/01 03:10:18;;;;;;;;;2.75;1.00;;;;;4.80;62.41;99574.78;5019387;28;45435;-63
2022/04/01 03:12:46;;;;;;;;;0.00;0.00;;;;;4.84;62.64;99579.00;5014993;28;45408;-64
2022/04/01 03:15:11;;;;;;;;;1.00;1.00;;;;;4.81;62.58;99563.47;5019927;28;46918;-64
2022/04/01 03:17:37;;;;;;;;;1.00;1.00;;;;;4.80;63.13;99564.34;5019254;28;45419;-64
2022/04/01 03:20:03;;;;;;;;;1.00;1.00;;;;;4.68;63.20;99567.31;5022566;28;45497;-64
2022/04/01 03:22:28;;;;;;;;;2.75;1.75;;;;;4.67;63.76;99578.59;5033718;28;45616;-66
2022/04/01 03:24:53;;;;;;;;;0.00;0.00;;;;;4.75;62.86;99561.88;5028241;28;45624;-64
2022/04/01 03:27:19;;;;;;;;;1.25;0.50;;;;;4.73;62.78;99560.19;5014534;28;45421;-66
2022/04/01 03:29:45;;;;;;;;;1.50;1.00;;;;;4.77;62.76;99561.84;5018602;28;45500;-63
2022/04/01 03:32:11;;;;;;;;;1.00;1.00;;;;;4.71;63.75;99569.84;5022546;28;45495;-63
2022/04/01 03:34:38;;;;;;;;;2.00;1.00;;;;;4.72;63.66;99548.09;5025109;28;45692;-63
2022/04/01 03:37:05;;;;;;;;;1.00;1.00;;;;;4.73;63.41;99549.78;5025351;28;45379;-65
2022/04/01 03:39:32;;;;;;;;;1.00;1.00;;;;;4.73;63.66;99555.00;5031455;28;45383;-63
2022/04/01 03:41:57;;;;;;;;;1.00;1.00;;;;;4.71;63.27;99547.25;5033122;28;45394;-66
2022/04/01 03:44:24;;;;;;;;;0.00;0.00;;;;;4.73;63.38;99549.78;5024499;28;45463;-64
2022/04/01 03:46:59;;;;;;;;;0.00;0.00;;;;;4.69;63.32;99540.38;5032773;28;45370;-65
2022/04/01 03:49:25;;;;;;;;;1.00;0.50;;;;;4.61;64.27;99536.22;5035233;28;45447;-63
2022/04/01 03:51:52;;;;;;;;;0.00;0.00;;;;;4.56;64.32;99540.69;5019472;28;45549;-65
2022/04/01 03:54:18;;;;;;;;;1.75;0.75;;;;;4.58;64.30;99545.88;5033865;28;45433;-62
2022/04/01 03:56:49;;;;;;;;;1.00;1.00;;;;;4.59;64.65;99551.06;5034972;28;45426;-66
2022/04/01 03:59:17;;;;;;;;;1.00;1.00;;;;;4.48;64.41;99542.66;5035078;28;45440;-64
2022/04/01 04:01:42;;;;;;;;;1.00;1.00;;;;;4.58;64.59;99540.66;5034913;28;45541;-66
2022/04/01 04:04:09;;;;;;;;;2.00;0.50;;;;;4.60;64.30;99538.88;5034878;28;45644;-65
2022/04/01 04:06:37;;;;;;;;;2.25;2.00;;;;;4.71;64.09;99541.19;5033970;28;45557;-62
2022/04/01 04:09:04;;;;;;;;;1.00;1.00;;;;;4.79;63.09;99544.41;5034889;28;45420;-64
2022/04/01 04:11:32;;;;;;;;;0.50;0.50;;;;;4.77;63.27;99561.84;5035128;28;45349;-65
2022/04/01 04:14:00;;;;;;;;;1.00;1.00;;;;;4.75;63.47;99543.63;5028821;28;46936;-63
2022/04/01 04:16:44;;;;;;;;;0.00;0.00;;;;;4.77;63.18;99552.25;5014917;28;45443;-63
2022/04/01 04:19:34;;;;;;;;;0.75;0.75;;;;;4.80;63.17;99546.97;5015221;28;45463;-63
2022/04/01 04:22:00;;;;;;;;;1.00;1.00;;;;;4.78;62.93;99551.38;5013910;28;45385;-63
2022/04/01 04:24:30;;;;;;;;;1.00;1.00;;;;;4.78;62.50;99532.28;5016052;28;47055;-66
2022/04/01 04:27:06;;;;;;;;;0.75;0.75;;;;;4.84;62.83;99539.94;5018472;28;45424;-65
2022/04/01 04:29:33;;;;;;;;;1.00;1.00;;;;;4.86;61.94;99538.13;5018312;28;45508;-62
2022/04/01 04:31:58;;;;;;;;;1.50;1.50;;;;;4.87;62.41;99532.03;5018574;28;45613;-63
2022/04/01 04:34:29;;;;;;;;;0.25;0.25;;;;;4.80;62.23;99536.53;5017798;28;45518;-65
2022/04/01 04:36:57;;;;;;;;;0.00;0.00;;;;;4.81;62.18;99550.44;5019243;28;45452;-62
2022/04/01 04:39:32;;;;;;;;;1.50;0.00;;;;;4.82;61.67;99544.31;5018259;28;45516;-63
2022/04/01 04:41:58;;;;;;;;;1.00;1.00;;;;;4.90;62.04;99549.31;5016861;28;45448;-63
2022/04/01 04:44:28;;;;;;;;;1.00;1.00;;;;;4.87;61.73;99558.94;5017909;28;45490;-64
2022/04/01 04:46:55;;;;;;;;;1.00;1.00;;;;;4.96;61.76;99549.97;5019325;28;45485;-62
2022/04/01 04:49:21;;;;;;;;;2.00;1.00;;;;;4.98;61.70;99542.97;5037968;28;45410;-65
2022/04/01 04:51:50;;;;;;;;;2.25;2.25;;;;;5.16;61.63;99545.91;5027965;28;45535;-64
2022/04/01 04:54:18;;;;;;;;;1.00;1.00;;;;;5.27;61.22;99555.16;5037585;28;45427;-63
2022/04/01 04:56:43;;;;;;;;;0.75;0.75;;;;;5.31;61.26;99561.09;5037572;28;45461;-63
2022/04/01 04:59:09;;;;;;;;;1.00;1.00;;;;;5.27;60.30;99565.56;5037727;28;45477;-66
2022/04/01 05:01:41;;;;;;;;;1.00;1.00;;;;;5.22;60.73;99550.97;5022523;28;45568;-63
2022/04/01 05:04:50;;;;;;;;;1.00;1.00;;;;;5.22;60.49;99541.41;5017688;28;45443;-64
2022/04/01 05:07:55;;;;;;;;;1.00;1.00;;;;;5.30;60.25;99559.41;5017135;28;45418;-62
2022/04/01 05:10:27;;;;;;;;;2.00;2.00;;;;;5.34;59.95;99560.16;5005927;28;45497;-66
2022/04/01 05:13:14;;;;;;;;;2.00;2.00;;;;;5.44;59.53;99567.66;5016086;28;45522;-63
2022/04/01 05:15:41;;;;;;;;;1.50;1.50;;;;;5.44;59.23;99567.66;5023795;28;45851;-63
2022/04/01 05:18:12;;;;;;;;;2.75;2.75;;;;;5.47;58.85;99556.28;5036733;28;45502;-64
2022/04/01 05:20:40;;;;;;;;;2.00;2.00;;;;;5.49;59.08;99584.00;5024979;28;45409;-62
2022/04/01 05:23:20;;;;;;;;;1.00;1.00;;;;;5.38;58.49;99570.47;5025395;28;45524;-65
2022/04/01 05:25:55;;;;;;;;;1.50;1.50;;;;;5.48;57.98;99594.47;5036633;28;46272;-63
2022/04/01 05:28:25;;;;;;;;;1.25;1.25;;;;;5.47;58.09;99577.13;5036659;28;45422;-63
2022/04/01 05:31:13;;;;;;;;;5.00;2.00;;;;;5.63;58.50;99580.97;5035909;28;45530;-63
2022/04/01 05:33:57;;;;;;;;;2.00;2.00;;;;;5.69;58.41;99593.81;5037284;28;45448;-63
2022/04/01 05:36:23;;;;;;;;;1.50;1.25;;;;;5.68;58.67;99592.13;5016074;28;46237;-65
2022/04/01 05:38:50;;;;;;;;;1.25;1.25;;;;;5.73;58.42;99594.59;5017042;28;45475;-63
2022/04/01 05:41:19;;;;;;;;;2.00;2.00;;;;;5.70;58.19;99594.69;5017306;28;45411;-67
2022/04/01 05:43:47;;;;;;;;;3.00;1.75;;;;;5.66;58.14;99580.03;5021512;28;45394;-66
2022/04/01 05:46:14;;;;;;;;;2.50;2.50;;;;;5.68;57.85;99601.69;5016718;28;45469;-65
2022/04/01 05:48:40;;;;;;;;;5.00;3.00;;;;;5.71;57.77;99596.38;5016726;28;45388;-66
2022/04/01 05:51:07;;;;;;;;;1.50;1.50;;;;;5.67;57.91;99593.03;5029872;28;45485;-66
2022/04/01 05:53:34;;;;;;;;;2.75;2.75;;;;;5.71;58.43;99606.81;5016210;28;45372;-67
2022/04/01 05:55:59;;;;;;;;;2.00;2.00;;;;;5.74;57.59;99611.94;5034405;28;45525;-66
2022/04/01 05:58:26;;;;;;;;;2.00;2.00;;;;;5.79;57.56;99609.19;5028152;28;45483;-66
2022/04/01 06:01:25;;;;;;;;;3.00;3.00;;;;;5.79;57.83;99603.97;5016411;28;45486;-67
2022/04/01 06:03:53;;;;;;;;;2.00;2.00;;;;;5.76;57.74;99610.13;5017737;28;45401;-67
2022/04/01 06:06:27;;;;;;;;;1.00;1.00;;;;;5.75;57.84;99616.28;5030101;28;48205;-64
2022/04/01 06:09:30;;;;;;;;;2.50;2.50;;;;;5.64;58.62;99607.91;5028551;28;45451;-65
2022/04/01 06:12:05;;;;;;;;;6.00;4.00;;;;;5.61;58.65;99628.88;5036258;28;45518;-65
2022/04/01 06:14:56;;;;;;;;;3.00;3.00;;;;;5.60;58.99;99628.03;5028570;28;45443;-64
2022/04/01 06:17:33;;;;;;;;;3.00;3.00;;;;;5.65;58.56;99633.94;4997828;28;45675;-62
2022/04/01 06:20:03;;;;;;;;;5.00;2.25;;;;;5.59;58.26;99630.66;5034407;28;45482;-64
2022/04/01 06:22:33;;;;;;;;;4.00;4.00;;;;;5.60;59.01;99640.22;5035428;28;45476;-64
2022/04/01 06:25:24;;;;;;;;;4.50;4.50;;;;;5.51;59.71;99655.25;5031181;28;45453;-67
2022/04/01 06:28:01;;;;;;;;;5.50;5.00;;;;;5.48;59.88;99657.94;5018131;28;45494;-62
2022/04/01 06:30:29;;;;;;;;;3.00;3.00;;;;;5.48;59.89;99649.25;5030915;28;45538;-63
2022/04/01 06:33:13;;;;;;;;;4.00;4.00;;;;;5.44;60.55;99630.22;5035752;28;45508;-66
2022/04/01 06:35:56;;;;;;;;;4.00;4.00;;;;;5.52;59.58;99651.72;5029757;28;45659;-66
2022/04/01 06:38:28;;;;;;;;;5.00;5.00;;;;;5.39;60.15;99658.19;5019001;28;46173;-68
2022/04/01 06:40:58;;;;;;;;;5.00;5.00;;;;;5.36;60.17;99658.28;5014884;28;45517;-67
2022/04/01 06:43:24;;;;;;;;;3.00;3.00;;;;;5.38;60.59;99656.50;5016088;28;45451;-66
2022/04/01 06:45:50;;;;;;;;;5.00;5.00;;;;;5.33;61.20;99671.41;5027117;28;45605;-66
2022/04/01 06:48:15;;;;;;;;;5.00;5.00;;;;;5.32;61.44;99667.13;5035220;28;45528;-66
2022/04/01 06:50:49;;;;;;;;;5.25;3.50;;;;;5.19;61.63;99665.75;5035157;28;45354;-67
2022/04/01 06:53:15;;;;;;;;;4.50;4.50;;;;;5.18;61.78;99670.09;5034966;28;45499;-67
2022/04/01 06:55:41;;;;;;;;;5.00;5.00;;;;;5.17;61.35;99670.16;5034148;28;45454;-67
2022/04/01 06:58:11;;;;;;;;;6.00;6.00;;;;;5.15;61.66;99679.75;5032669;28;46385;-66
2022/04/01 07:00:42;;;;;;;;;5.50;5.50;;;;;4.96;62.04;99682.88;5035116;28;45414;-67
2022/04/01 07:03:09;;;;;;;;;6.25;5.00;;;;;4.98;62.59;99683.69;5033985;28;45691;-66
2022/04/01 07:05:35;;;;;;;;;5.75;5.25;;;;;4.94;62.44;99676.84;5033507;28;45364;-66
2022/04/01 07:08:02;;;;;;;;;7.00;7.00;;;;;4.87;63.32;99683.97;5034942;28;45513;-68
2022/04/01 07:10:28;;;;;;;;;5.75;5.75;;;;;4.88;63.22;99685.66;5035084;28;45484;-66
2022/04/01 07:12:53;;;;;;;;;9.50;9.50;;;;;4.92;63.22;99683.00;5033560;28;45361;-66
2022/04/01 07:15:19;;;;;;;;;6.00;6.00;;;;;5.00;62.75;99697.53;5034381;28;45414;-67
2022/04/01 07:17:45;;;;;;;;;6.00;6.00;;;;;5.09;61.75;99691.22;5033043;28;46687;-68
2022/04/01 07:20:12;;;;;;;;;6.50;6.50;;;;;5.09;61.83;99697.28;5034973;28;45448;-66
2022/04/01 07:22:39;;;;;;;;;6.00;6.00;;;;;5.00;62.54;99697.53;5035020;28;45448;-66
2022/04/01 07:25:05;;;;;;;;;5.00;5.00;;;;;4.91;63.15;99695.16;5034801;28;45568;-67
2022/04/01 07:27:30;;;;;;;;;8.00;7.25;;;;;4.83;63.14;99694.50;5034464;28;46129;-66
2022/04/01 07:29:56;;;;;;;;;6.00;6.00;;;;;4.80;63.16;99699.81;5034999;28;46419;-68
2022/04/01 07:32:30;;;;;;;;;7.25;7.25;;;;;4.77;63.36;99699.88;5034811;28;45552;-66
2022/04/01 07:34:56;;;;;;;;;6.00;6.00;;;;;4.83;62.70;99708.38;5034705;28;45505;-67
2022/04/01 07:37:24;;;;;;;;;10.00;10.00;;;;;4.92;62.63;99724.69;5033157;28;46647;-67
2022/04/01 07:39:51;;;;;;;;;9.25;8.00;;;;;4.98;62.81;99707.13;5033347;28;45648;-66
2022/04/01 07:42:20;;;;;;;;;8.00;8.00;;;;;5.04;62.74;99703.50;5034698;28;45448;-66
2022/04/01 07:44:46;;;;;;;;;8.50;8.50;;;;;5.00;63.04;99707.97;5033139;28;45639;-67
2022/04/01 07:47:14;;;;;;;;;9.00;9.00;;;;;5.10;63.27;99708.53;5034635;28;45478;-66
2022/04/01 07:49:40;;;;;;;;;9.75;9.75;;;;;5.02;62.41;99713.09;5034562;28;45454;-67
2022/04/01 07:52:08;;;;;;;;;9.00;9.00;;;;;5.02;62.32;99720.94;5034698;28;45422;-67
2022/04/01 07:54:35;;;;;;;;;7.25;7.25;;;;;5.07;62.05;99727.72;5033284;28;45508;-67
2022/04/01 07:57:01;;;;;;;;;11.50;11.50;;;;;5.08;62.82;99726.84;5034432;28;46317;-67
2022/04/01 07:59:26;;;;;;;;;13.25;10.25;;;;;5.05;63.22;99739.97;5051395;28;45534;-68
2022/04/01 08:01:52;;;;;;;;;10.75;9.75;;;;;5.07;62.27;99735.53;5037748;28;45889;-67
2022/04/01 08:04:17;;;;;;;;;11.50;9.75;;;;;5.12;62.10;99737.19;5038023;28;45649;-67
2022/04/01 08:06:43;;;;;;;;;12.50;11.50;;;;;5.13;62.38;99731.94;5037404;28;46022;-67
2022/04/01 08:09:08;;;;;;;;;10.50;9.25;;;;;5.09;62.59;99733.75;5037967;28;45391;-67
2022/04/01 08:11:34;;;;;;;;;9.50;9.50;;;;;5.09;62.08;99744.19;5037961;28;45387;-66
2022/04/01 08:14:00;;;;;;;;;9.50;9.00;;;;;5.04;62.41;99740.84;5037686;28;45466;-66
2022/04/01 08:16:25;;;;;;;;;11.50;9.25;;;;;5.08;62.21;99758.13;5037589;28;45643;-67
2022/04/01 08:18:51;;;;;;;;;7.25;7.25;;;;;5.13;61.24;99755.41;5037656;28;45379;-67
2022/04/01 08:21:17;;;;;;;;;8.25;8.25;;;;;5.05;61.32;99758.22;5037757;28;45305;-66
2022/04/01 08:23:42;;;;;;;;;7.00;7.00;;;;;4.97;61.86;99759.28;5037893;28;45329;-67
2022/04/01 08:26:08;;;;;;;;;9.75;9.75;;;;;4.86;62.39;99768.25;5037315;28;45832;-67
2022/04/01 08:28:35;;;;;;;;;6.50;6.50;;;;;4.84;62.17;99770.03;5037693;28;45511;-66
2022/04/01 08:31:03;;;;;;;;;9.25;7.50;;;;;4.86;61.80;99770.84;5036129;28;45378;-67
2022/04/01 08:33:28;;;;;;;;;8.75;8.75;;;;;5.00;62.00;99774.84;5037303;28;45455;-66
2022/04/01 08:35:54;;;;;;;;;9.00;7.75;;;;;5.09;61.74;99783.28;5037119;28;46335;-66
2022/04/01 08:38:20;;;;;;;;;9.50;9.00;;;;;5.08;61.42;99784.19;5037348;28;45413;-66
2022/04/01 08:40:45;;;;;;;;;8.75;8.75;;;;;5.03;60.99;99783.44;5035935;28;45468;-66
2022/04/01 08:43:11;;;;;;;;;7.00;6.00;;;;;5.06;61.56;99787.72;5037522;28;45657;-66
2022/04/01 08:45:37;;;;;;;;;13.00;9.00;;;;;5.07;61.24;99802.44;5037075;28;46234;-66
2022/04/01 08:48:10;;;;;;;;;9.75;9.75;;;;;5.00;60.89;99796.56;5037218;28;45455;-65
2022/04/01 08:50:35;;;;;;;;;6.50;6.00;;;;;5.09;61.17;99800.66;5037055;28;45371;-65
2022/04/01 08:53:01;;;;;;;;;10.25;10.25;;;;;5.05;61.34;99799.91;5037097;28;45509;-66
2022/04/01 08:55:27;;;;;;;;;8.00;7.50;;;;;5.06;61.42;99813.78;5036977;28;46394;-66
2022/04/01 08:57:52;;;;;;;;;9.00;9.00;;;;;5.16;60.76;99819.59;5037163;28;45397;-66
2022/04/01 09:00:17;;;;;;;;;7.75;7.50;;;;;5.17;61.23;99834.34;5037199;28;45368;-67
2022/04/01 09:02:45;;;;;;;;;6.75;6.75;;;;;5.13;60.66;99832.72;5036941;28;45675;-66
2022/04/01 09:05:11;;;;;;;;;13.75;10.25;;;;;5.09;61.19;99837.16;5036878;28;46156;-66
2022/04/01 09:07:36;;;;;;;;;9.75;9.75;;;;;5.05;61.30;99827.69;5036719;28;45518;-66
2022/04/01 09:10:07;;;;;;;;;13.50;12.50;;;;;5.08;60.99;99833.69;5035743;28;45454;-66
2022/04/01 09:12:36;;;;;;;;;11.00;11.00;;;;;5.13;61.21;99833.59;5036801;28;45474;-66
2022/04/01 09:15:03;;;;;;;;;9.75;9.25;;;;;5.19;60.46;99837.78;5036930;28;46190;-66
2022/04/01 09:17:46;;;;;;;;;11.00;11.00;;;;;5.29;60.33;99849.66;5036671;28;45541;-66
2022/04/01 09:20:12;;;;;;;;;9.00;9.00;;;;;5.32;59.94;99845.25;5035380;28;45482;-67
2022/04/01 09:22:39;;;;;;;;;9.00;7.00;;;;;5.23;60.21;99853.28;5036602;28;45394;-67
2022/04/01 09:25:06;;;;;;;;;13.50;12.00;;;;;5.22;60.45;99863.78;5036449;28;46265;-67
2022/04/01 09:27:53;;;;;;;;;19.50;18.00;;;;;5.29;60.46;99860.09;5036470;28;45408;-67
2022/04/01 09:30:26;;;;;;;;;13.50;13.00;;;;;5.28;59.56;99854.03;5036536;28;45398;-67
2022/04/01 09:32:57;;;;;;;;;15.25;12.50;;;;;5.22;60.24;99863.78;5036529;28;45522;-67
2022/04/01 09:35:27;;;;;;;;;11.00;11.00;;;;;5.22;60.38;99867.22;5036260;28;46927;-68
2022/04/01 09:37:55;;;;;;;;;12.00;12.00;;;;;5.14;60.79;99866.56;5035919;28;45506;-67
2022/04/01 09:40:22;;;;;;;;;10.75;10.75;;;;;5.03;60.01;99864.22;5036369;28;45439;-67
2022/04/01 09:42:58;;;;;;;;;11.00;11.00;;;;;4.99;59.69;99877.34;5036072;28;45516;-66
2022/04/01 09:45:28;;;;;;;;;13.50;13.50;;;;;4.96;59.84;99857.44;5034813;28;46533;-66
2022/04/01 09:48:01;;;;;;;;;14.00;13.00;;;;;5.15;60.12;99880.44;5035882;28;45368;-66
2022/04/01 09:50:36;;;;;;;;;15.50;13.50;;;;;5.03;59.69;99902.47;5036005;28;45396;-67
2022/04/01 09:53:13;;;;;;;;;15.25;14.25;;;;;5.04;59.84;99893.75;5035975;28;45377;-67
2022/04/01 09:55:46;;;;;;;;;16.00;13.00;;;;;5.13;59.87;99895.25;5035916;28;45504;-67
2022/04/01 09:58:13;;;;;;;;;17.25;15.50;;;;;5.18;59.91;99883.81;5034231;28;45392;-67
2022/04/01 10:00:40;;;;;;;;;10.50;10.50;;;;;5.18;59.69;99891.66;5035939;28;45507;-67
2022/04/01 10:03:07;;;;;;;;;13.25;13.00;;;;;5.25;60.21;99900.19;5035840;28;45534;-67
2022/04/01 10:05:35;;;;;;;;;13.25;13.25;;;;;5.29;59.68;99907.03;5035732;28;46169;-67
2022/04/01 10:08:04;;;;;;;;;13.50;13.50;;;;;5.27;59.97;99898.41;5035674;28;45406;-67
2022/04/01 10:10:30;;;;;;;;;23.25;22.50;;;;;5.20;60.10;99909.88;5035574;28;45521;-67
2022/04/01 10:13:01;;;;;;;;;15.00;15.00;;;;;5.20;59.65;99897.69;5035839;28;45591;-67
2022/04/01 10:15:29;;;;;;;;;14.25;14.25;;;;;5.23;59.52;99896.75;5035672;28;46428;-69
2022/04/01 10:17:57;;;;;;;;;14.50;13.50;;;;;5.29;58.89;99907.03;5035542;28;45581;-68
2022/04/01 10:20:30;;;;;;;;;13.00;13.00;;;;;5.23;59.16;99909.78;5035762;28;45550;-67
2022/04/01 10:22:56;;;;;;;;;18.00;18.00;;;;;5.20;59.96;99907.25;5035277;28;45527;-67
2022/04/01 10:25:37;;;;;;;;;17.50;17.50;;;;;5.19;59.96;99910.78;5035585;28;46202;-67
2022/04/01 10:28:04;;;;;;;;;14.50;13.25;;;;;5.23;59.81;99920.22;5035421;28;45578;-67
2022/04/01 10:30:32;;;;;;;;;16.50;15.75;;;;;5.26;59.78;99918.38;5035413;28;45496;-67
2022/04/01 10:32:58;;;;;;;;;16.25;16.25;;;;;5.34;59.73;99935.59;5035143;28;45418;-68
2022/04/01 10:35:24;;;;;;;;;19.00;16.75;;;;;5.41;59.59;99935.41;5035069;28;45517;-67
2022/04/01 10:38:12;;;;;;;;;11.00;9.00;;;;;5.45;59.13;99923.16;5034974;28;45401;-67
2022/04/01 10:40:40;;;;;;;;;22.00;18.75;;;;;5.48;59.03;99913.50;5035008;28;45565;-67
2022/04/01 10:43:13;;;;;;;;;10.50;10.50;;;;;5.56;58.50;99930.69;5035146;28;45590;-66
2022/04/01 10:45:40;;;;;;;;;13.75;13.75;;;;;5.57;58.56;99948.94;5035244;28;46344;-66
2022/04/01 10:51:37;;;;;;;;;16.00;14.25;;;;;5.52;58.21;99940.34;5035122;28;45445;-67
2022/04/01 10:54:23;;;;;;;;;17.50;15.00;;;;;5.53;58.31;99947.28;5035095;28;45439;-68
2022/04/01 10:57:05;;;;;;;;;19.75;18.75;;;;;5.45;58.36;99950.06;5027360;28;46105;-66
2022/04/01 10:59:46;;;;;;;;;15.50;15.50;;;;;5.53;58.31;99955.97;5034968;28;45519;-66
2022/04/01 11:02:18;;;;;;;;;15.00;14.25;;;;;5.59;57.34;99956.69;5035170;28;45751;-67
2022/04/01 11:04:45;;;;;;;;;17.75;16.00;;;;;5.62;58.16;99962.72;5034931;28;45467;-66
2022/04/01 11:07:23;;;;;;;;;14.00;14.00;;;;;5.65;58.20;99961.78;5034329;28;46077;-68
2022/04/01 11:09:52;;;;;;;;;17.00;13.00;;;;;5.68;58.14;99967.75;5034536;28;45455;-66
2022/04/01 11:12:19;;;;;;;;;18.25;18.25;;;;;5.64;58.30;99970.47;5034505;28;45460;-66
2022/04/01 11:14:53;;;;;;;;;16.75;15.50;;;;;5.64;59.04;99978.31;5032140;28;45535;-68
2022/04/01 11:17:19;;;;;;;;;14.25;14.25;;;;;5.64;59.13;99973.09;5018773;28;46239;-68
2022/04/01 11:20:08;;;;;;;;;19.75;18.50;;;;;5.69;58.56;99979.06;5034374;28;45441;-67
2022/04/01 11:22:38;;;;;;;;;16.25;14.50;;;;;5.74;58.00;99969.34;5030694;28;45526;-68
2022/04/01 11:25:04;;;;;;;;;16.25;15.00;;;;;5.72;57.81;99971.13;5029789;28;45515;-69
2022/04/01 11:27:30;;;;;;;;;17.25;15.25;;;;;5.80;57.86;99976.16;5034378;28;45443;-70
2022/04/01 11:30:09;;;;;;;;;15.00;14.50;;;;;5.83;57.23;99979.56;5022814;28;45513;-70
2022/04/01 11:32:37;;;;;;;;;14.00;14.00;;;;;5.70;58.15;99989.47;5020784;28;45574;-68
2022/04/01 11:35:05;;;;;;;;;14.00;14.00;;;;;5.68;57.23;99978.19;5030510;28;45546;-69
2022/04/01 11:37:36;;;;;;;;;14.00;14.00;;;;;5.66;57.13;99979.97;5021126;28;46142;-69
2022/04/01 11:40:10;;;;;;;;;21.50;17.75;;;;;5.77;57.89;99977.09;5014486;28;45361;-68
2022/04/01 11:42:59;;;;;;;;;13.25;13.25;;;;;5.72;57.30;99992.00;5015267;28;45457;-67
2022/04/01 11:45:35;;;;;;;;;14.25;11.75;;;;;5.59;57.53;99985.38;5018499;28;45446;-69
2022/04/01 11:48:29;;;;;;;;;17.50;17.50;;;;;5.60;57.87;99990.59;5022351;28;45485;-68
2022/04/01 11:51:05;;;;;;;;;16.25;14.75;;;;;5.68;58.10;99993.00;5029278;28;45454;-68
2022/04/01 11:53:35;;;;;;;;;18.00;15.50;;;;;5.67;57.94;99991.28;5034843;28;45503;-68
2022/04/01 11:56:02;;;;;;;;;17.00;15.25;;;;;5.56;57.85;100008.94;5034305;28;45509;-69